sensor_id;sensor_type;location;lat;lon;timestamp;P1;durP1;ratioP1;P2;durP2;ratioP2
3939;SDS011;1984;48.312;9.244;2022-11-15T00:01:35;42.00;;;16.40;;
3939;SDS011;1984;48.312;9.244;2022-11-15T00:04:02;30.00;;;13.23;;
3939;SDS011;1984;48.312;9.244;2022-11-15T00:06:28;31.60;;;15.63;;
3939;SDS011;1984;48.312;9.244;2022-11-15T00:08:54;29.47;;;13.90;;
3939;SDS011;1984;48.312;9.244;2022-11-15T00:11:20;27.63;;;12.80;;
3939;SDS011;1984;48.312;9.244;2022-11-15T00:13:45;30.23;;;13.57;;
3939;SDS011;1984;48.312;9.244;2022-11-15T00:16:11;32.73;;;14.30;;
3939;SDS011;1984;48.312;9.244;2022-11-15T00:18:37;30.00;;;14.00;;
3939;SDS011;1984;48.312;9.244;2022-11-15T00:21:03;35.90;;;15.27;;
3939;SDS011;1984;48.312;9.244;2022-11-15T00:23:31;32.20;;;15.37;;
3939;SDS011;1984;48.312;9.244;2022-11-15T00:25:58;32.30;;;16.37;;
3939;SDS011;1984;48.312;9.244;2022-11-15T00:28:24;32.13;;;15.00;;
3939;SDS011;1984;48.312;9.244;2022-11-15T00:30:50;33.07;;;14.10;;
3939;SDS011;1984;48.312;9.244;2022-11-15T00:33:16;31.33;;;13.57;;
3939;SDS011;1984;48.312;9.244;2022-11-15T00:35:42;41.70;;;15.23;;
3939;SDS011;1984;48.312;9.244;2022-11-15T00:38:07;30.70;;;16.23;;
3939;SDS011;1984;48.312;9.244;2022-11-15T00:40:33;24.50;;;14.70;;
3939;SDS011;1984;48.312;9.244;2022-11-15T00:42:58;32.57;;;14.73;;
3939;SDS011;1984;48.312;9.244;2022-11-15T00:45:24;27.03;;;12.20;;
3939;SDS011;1984;48.312;9.244;2022-11-15T00:47:50;18.53;;;10.30;;
3939;SDS011;1984;48.312;9.244;2022-11-15T00:50:16;18.97;;;10.37;;
3939;SDS011;1984;48.312;9.244;2022-11-15T00:52:42;13.93;;;8.53;;
3939;SDS011;1984;48.312;9.244;2022-11-15T00:55:12;17.87;;;10.57;;
3939;SDS011;1984;48.312;9.244;2022-11-15T00:57:40;28.13;;;10.87;;
3939;SDS011;1984;48.312;9.244;2022-11-15T01:00:06;18.70;;;10.70;;
3939;SDS011;1984;48.312;9.244;2022-11-15T01:02:32;12.57;;;9.63;;
3939;SDS011;1984;48.312;9.244;2022-11-15T01:04:57;12.40;;;9.10;;
3939;SDS011;1984;48.312;9.244;2022-11-15T01:07:23;13.53;;;8.93;;
3939;SDS011;1984;48.312;9.244;2022-11-15T01:09:48;15.80;;;9.70;;
3939;SDS011;1984;48.312;9.244;2022-11-15T01:12:14;19.90;;;9.73;;
3939;SDS011;1984;48.312;9.244;2022-11-15T01:14:39;16.50;;;10.30;;
3939;SDS011;1984;48.312;9.244;2022-11-15T01:17:05;14.20;;;9.93;;
3939;SDS011;1984;48.312;9.244;2022-11-15T01:19:30;18.47;;;10.60;;
3939;SDS011;1984;48.312;9.244;2022-11-15T01:21:56;19.50;;;11.30;;
3939;SDS011;1984;48.312;9.244;2022-11-15T01:24:21;74.63;;;26.50;;
3939;SDS011;1984;48.312;9.244;2022-11-15T01:26:47;59.23;;;24.57;;
3939;SDS011;1984;48.312;9.244;2022-11-15T01:29:12;68.53;;;25.17;;
3939;SDS011;1984;48.312;9.244;2022-11-15T01:31:38;42.73;;;19.97;;
3939;SDS011;1984;48.312;9.244;2022-11-15T01:34:03;28.83;;;15.27;;
3939;SDS011;1984;48.312;9.244;2022-11-15T01:36:29;52.73;;;17.30;;
3939;SDS011;1984;48.312;9.244;2022-11-15T01:38:55;57.37;;;23.53;;
3939;SDS011;1984;48.312;9.244;2022-11-15T01:41:23;47.33;;;19.17;;
3939;SDS011;1984;48.312;9.244;2022-11-15T01:46:57;47.20;;;19.50;;
3939;SDS011;1984;48.312;9.244;2022-11-15T01:49:25;57.77;;;20.40;;
3939;SDS011;1984;48.312;9.244;2022-11-15T01:51:54;34.13;;;14.80;;
3939;SDS011;1984;48.312;9.244;2022-11-15T01:54:21;29.93;;;12.40;;
3939;SDS011;1984;48.312;9.244;2022-11-15T01:56:53;21.47;;;10.73;;
3939;SDS011;1984;48.312;9.244;2022-11-15T01:59:31;25.93;;;10.47;;
3939;SDS011;1984;48.312;9.244;2022-11-15T02:01:57;29.83;;;11.80;;
3939;SDS011;1984;48.312;9.244;2022-11-15T02:04:27;26.87;;;13.17;;
3939;SDS011;1984;48.312;9.244;2022-11-15T02:06:55;24.17;;;10.27;;
3939;SDS011;1984;48.312;9.244;2022-11-15T02:09:21;24.17;;;11.83;;
3939;SDS011;1984;48.312;9.244;2022-11-15T02:11:47;23.80;;;9.60;;
3939;SDS011;1984;48.312;9.244;2022-11-15T02:14:14;31.63;;;11.17;;
3939;SDS011;1984;48.312;9.244;2022-11-15T02:16:52;17.70;;;9.33;;
3939;SDS011;1984;48.312;9.244;2022-11-15T02:27:47;17.27;;;8.10;;
3939;SDS011;1984;48.312;9.244;2022-11-15T02:35:31;11.10;;;7.67;;
3939;SDS011;1984;48.312;9.244;2022-11-15T02:38:09;16.87;;;10.00;;
3939;SDS011;1984;48.312;9.244;2022-11-15T02:40:59;20.60;;;9.03;;
3939;SDS011;1984;48.312;9.244;2022-11-15T02:43:36;12.27;;;7.83;;
3939;SDS011;1984;48.312;9.244;2022-11-15T02:49:29;12.10;;;7.50;;
3939;SDS011;1984;48.312;9.244;2022-11-15T02:51:57;10.67;;;6.87;;
3939;SDS011;1984;48.312;9.244;2022-11-15T02:54:24;10.50;;;5.00;;
3939;SDS011;1984;48.312;9.244;2022-11-15T02:56:52;5.10;;;4.27;;
3939;SDS011;1984;48.312;9.244;2022-11-15T03:10:50;3.97;;;3.57;;
3939;SDS011;1984;48.312;9.244;2022-11-15T03:19:00;24.20;;;8.53;;
3939;SDS011;1984;48.312;9.244;2022-11-15T03:21:32;20.87;;;7.63;;
3939;SDS011;1984;48.312;9.244;2022-11-15T03:24:01;29.23;;;8.73;;
3939;SDS011;1984;48.312;9.244;2022-11-15T03:26:30;20.00;;;8.10;;
3939;SDS011;1984;48.312;9.244;2022-11-15T03:29:20;25.23;;;9.50;;
3939;SDS011;1984;48.312;9.244;2022-11-15T03:32:00;42.87;;;11.93;;
3939;SDS011;1984;48.312;9.244;2022-11-15T03:34:47;40.83;;;12.57;;
3939;SDS011;1984;48.312;9.244;2022-11-15T03:37:21;80.40;;;12.90;;
3939;SDS011;1984;48.312;9.244;2022-11-15T03:39:52;41.37;;;12.13;;
3939;SDS011;1984;48.312;9.244;2022-11-15T03:47:34;30.17;;;9.23;;
3939;SDS011;1984;48.312;9.244;2022-11-15T03:50:07;25.17;;;9.37;;
3939;SDS011;1984;48.312;9.244;2022-11-15T03:52:36;32.93;;;8.90;;
3939;SDS011;1984;48.312;9.244;2022-11-15T03:55:04;24.13;;;9.00;;
3939;SDS011;1984;48.312;9.244;2022-11-15T03:57:31;18.33;;;8.10;;
3939;SDS011;1984;48.312;9.244;2022-11-15T03:59:56;20.80;;;8.20;;
3939;SDS011;1984;48.312;9.244;2022-11-15T04:02:22;25.13;;;7.33;;
3939;SDS011;1984;48.312;9.244;2022-11-15T04:04:48;22.57;;;7.53;;
3939;SDS011;1984;48.312;9.244;2022-11-15T04:07:13;15.07;;;6.03;;
3939;SDS011;1984;48.312;9.244;2022-11-15T04:09:39;19.97;;;7.53;;
3939;SDS011;1984;48.312;9.244;2022-11-15T04:12:23;19.73;;;8.47;;
3939;SDS011;1984;48.312;9.244;2022-11-15T04:15:01;14.37;;;7.00;;
3939;SDS011;1984;48.312;9.244;2022-11-15T04:20:07;11.80;;;6.40;;
3939;SDS011;1984;48.312;9.244;2022-11-15T04:22:57;18.40;;;6.40;;
3939;SDS011;1984;48.312;9.244;2022-11-15T04:25:43;24.70;;;7.03;;
3939;SDS011;1984;48.312;9.244;2022-11-15T04:28:10;14.50;;;6.27;;
3939;SDS011;1984;48.312;9.244;2022-11-15T04:30:36;23.13;;;6.37;;
3939;SDS011;1984;48.312;9.244;2022-11-15T04:33:02;9.53;;;5.27;;
3939;SDS011;1984;48.312;9.244;2022-11-15T04:35:27;8.63;;;4.80;;
3939;SDS011;1984;48.312;9.244;2022-11-15T04:37:53;26.97;;;6.37;;
3939;SDS011;1984;48.312;9.244;2022-11-15T04:40:19;10.40;;;5.33;;
3939;SDS011;1984;48.312;9.244;2022-11-15T04:42:45;11.63;;;5.20;;
3939;SDS011;1984;48.312;9.244;2022-11-15T04:45:11;13.60;;;6.30;;
3939;SDS011;1984;48.312;9.244;2022-11-15T04:47:36;12.13;;;5.30;;
3939;SDS011;1984;48.312;9.244;2022-11-15T04:50:02;14.33;;;6.30;;
3939;SDS011;1984;48.312;9.244;2022-11-15T04:52:28;13.27;;;5.20;;
3939;SDS011;1984;48.312;9.244;2022-11-15T04:54:53;13.77;;;5.47;;
3939;SDS011;1984;48.312;9.244;2022-11-15T04:57:19;10.57;;;6.30;;
3939;SDS011;1984;48.312;9.244;2022-11-15T04:59:45;9.97;;;5.57;;
3939;SDS011;1984;48.312;9.244;2022-11-15T05:02:11;9.57;;;6.17;;
3939;SDS011;1984;48.312;9.244;2022-11-15T05:04:36;10.13;;;5.27;;
3939;SDS011;1984;48.312;9.244;2022-11-15T05:07:02;22.53;;;5.70;;
3939;SDS011;1984;48.312;9.244;2022-11-15T05:09:30;12.13;;;5.67;;
3939;SDS011;1984;48.312;9.244;2022-11-15T05:11:56;20.53;;;5.80;;
3939;SDS011;1984;48.312;9.244;2022-11-15T05:14:21;5.53;;;4.40;;
3939;SDS011;1984;48.312;9.244;2022-11-15T05:16:47;9.53;;;5.00;;
3939;SDS011;1984;48.312;9.244;2022-11-15T05:19:12;7.00;;;3.90;;
3939;SDS011;1984;48.312;9.244;2022-11-15T05:21:38;20.23;;;8.83;;
3939;SDS011;1984;48.312;9.244;2022-11-15T05:24:04;27.23;;;11.30;;
3939;SDS011;1984;48.312;9.244;2022-11-15T05:26:30;20.73;;;9.00;;
3939;SDS011;1984;48.312;9.244;2022-11-15T05:28:56;24.30;;;9.73;;
3939;SDS011;1984;48.312;9.244;2022-11-15T05:31:23;21.70;;;10.23;;
3939;SDS011;1984;48.312;9.244;2022-11-15T05:33:50;17.57;;;9.57;;
3939;SDS011;1984;48.312;9.244;2022-11-15T05:39:03;21.43;;;8.87;;
3939;SDS011;1984;48.312;9.244;2022-11-15T05:41:34;18.33;;;7.87;;
3939;SDS011;1984;48.312;9.244;2022-11-15T05:44:10;14.30;;;6.07;;
3939;SDS011;1984;48.312;9.244;2022-11-15T05:46:39;14.83;;;7.30;;
3939;SDS011;1984;48.312;9.244;2022-11-15T05:49:06;19.17;;;8.23;;
3939;SDS011;1984;48.312;9.244;2022-11-15T05:51:35;14.30;;;7.50;;
3939;SDS011;1984;48.312;9.244;2022-11-15T05:54:00;20.77;;;9.20;;
3939;SDS011;1984;48.312;9.244;2022-11-15T05:56:27;17.90;;;8.53;;
3939;SDS011;1984;48.312;9.244;2022-11-15T05:58:54;21.57;;;8.97;;
3939;SDS011;1984;48.312;9.244;2022-11-15T06:01:21;16.10;;;7.97;;
3939;SDS011;1984;48.312;9.244;2022-11-15T06:03:47;21.30;;;7.47;;
3939;SDS011;1984;48.312;9.244;2022-11-15T06:06:12;17.90;;;8.30;;
3939;SDS011;1984;48.312;9.244;2022-11-15T06:08:38;19.30;;;8.30;;
3939;SDS011;1984;48.312;9.244;2022-11-15T06:11:04;13.13;;;7.57;;
3939;SDS011;1984;48.312;9.244;2022-11-15T06:13:31;12.63;;;6.43;;
3939;SDS011;1984;48.312;9.244;2022-11-15T06:15:57;15.03;;;6.40;;
3939;SDS011;1984;48.312;9.244;2022-11-15T06:18:23;10.80;;;6.30;;
3939;SDS011;1984;48.312;9.244;2022-11-15T06:20:48;10.13;;;5.67;;
3939;SDS011;1984;48.312;9.244;2022-11-15T06:23:14;11.63;;;5.53;;
3939;SDS011;1984;48.312;9.244;2022-11-15T06:25:39;7.90;;;4.70;;
3939;SDS011;1984;48.312;9.244;2022-11-15T06:28:05;9.67;;;5.50;;
3939;SDS011;1984;48.312;9.244;2022-11-15T06:30:30;9.67;;;5.77;;
3939;SDS011;1984;48.312;9.244;2022-11-15T06:33:00;8.63;;;5.30;;
3939;SDS011;1984;48.312;9.244;2022-11-15T06:35:27;11.73;;;5.60;;
3939;SDS011;1984;48.312;9.244;2022-11-15T06:37:53;14.60;;;7.30;;
3939;SDS011;1984;48.312;9.244;2022-11-15T06:40:18;19.03;;;9.00;;
3939;SDS011;1984;48.312;9.244;2022-11-15T06:42:44;42.00;;;11.07;;
3939;SDS011;1984;48.312;9.244;2022-11-15T06:45:09;13.87;;;8.03;;
3939;SDS011;1984;48.312;9.244;2022-11-15T06:47:35;14.43;;;7.90;;
3939;SDS011;1984;48.312;9.244;2022-11-15T06:50:00;13.10;;;6.43;;
3939;SDS011;1984;48.312;9.244;2022-11-15T06:52:26;17.07;;;7.40;;
3939;SDS011;1984;48.312;9.244;2022-11-15T06:54:57;14.87;;;8.27;;
3939;SDS011;1984;48.312;9.244;2022-11-15T06:57:22;11.80;;;7.93;;
3939;SDS011;1984;48.312;9.244;2022-11-15T06:59:48;17.30;;;8.33;;
3939;SDS011;1984;48.312;9.244;2022-11-15T07:02:13;9.70;;;6.97;;
3939;SDS011;1984;48.312;9.244;2022-11-15T07:04:39;7.90;;;5.73;;
3939;SDS011;1984;48.312;9.244;2022-11-15T07:07:05;8.60;;;5.50;;
3939;SDS011;1984;48.312;9.244;2022-11-15T07:09:30;13.40;;;6.57;;
3939;SDS011;1984;48.312;9.244;2022-11-15T07:11:56;9.13;;;6.70;;
3939;SDS011;1984;48.312;9.244;2022-11-15T07:14:21;12.30;;;7.20;;
3939;SDS011;1984;48.312;9.244;2022-11-15T07:16:47;14.83;;;8.40;;
3939;SDS011;1984;48.312;9.244;2022-11-15T07:19:12;22.13;;;10.97;;
3939;SDS011;1984;48.312;9.244;2022-11-15T07:21:38;30.43;;;11.67;;
3939;SDS011;1984;48.312;9.244;2022-11-15T07:24:04;22.60;;;11.10;;
3939;SDS011;1984;48.312;9.244;2022-11-15T07:26:29;34.90;;;13.67;;
3939;SDS011;1984;48.312;9.244;2022-11-15T07:28:55;24.40;;;12.40;;
3939;SDS011;1984;48.312;9.244;2022-11-15T07:31:20;28.57;;;14.20;;
3939;SDS011;1984;48.312;9.244;2022-11-15T07:33:47;34.30;;;14.80;;
3939;SDS011;1984;48.312;9.244;2022-11-15T07:36:12;35.30;;;15.33;;
3939;SDS011;1984;48.312;9.244;2022-11-15T07:38:38;27.47;;;13.67;;
3939;SDS011;1984;48.312;9.244;2022-11-15T07:41:04;21.57;;;11.40;;
3939;SDS011;1984;48.312;9.244;2022-11-15T07:43:30;14.40;;;7.80;;
3939;SDS011;1984;48.312;9.244;2022-11-15T07:45:57;19.70;;;10.87;;
3939;SDS011;1984;48.312;9.244;2022-11-15T07:48:23;25.50;;;11.10;;
3939;SDS011;1984;48.312;9.244;2022-11-15T07:50:49;25.43;;;13.90;;
3939;SDS011;1984;48.312;9.244;2022-11-15T07:53:15;23.50;;;13.07;;
3939;SDS011;1984;48.312;9.244;2022-11-15T07:55:40;31.80;;;14.30;;
3939;SDS011;1984;48.312;9.244;2022-11-15T07:58:07;30.33;;;14.30;;
3939;SDS011;1984;48.312;9.244;2022-11-15T08:00:35;29.20;;;13.20;;
3939;SDS011;1984;48.312;9.244;2022-11-15T08:03:02;19.37;;;10.40;;
3939;SDS011;1984;48.312;9.244;2022-11-15T08:05:31;17.57;;;10.27;;
3939;SDS011;1984;48.312;9.244;2022-11-15T08:07:57;21.83;;;12.30;;
3939;SDS011;1984;48.312;9.244;2022-11-15T08:10:22;26.10;;;11.97;;
3939;SDS011;1984;48.312;9.244;2022-11-15T08:12:54;31.33;;;16.37;;
3939;SDS011;1984;48.312;9.244;2022-11-15T08:15:25;38.90;;;14.67;;
3939;SDS011;1984;48.312;9.244;2022-11-15T08:17:57;23.70;;;13.00;;
3939;SDS011;1984;48.312;9.244;2022-11-15T08:20:24;26.87;;;14.40;;
3939;SDS011;1984;48.312;9.244;2022-11-15T08:22:51;31.43;;;16.83;;
3939;SDS011;1984;48.312;9.244;2022-11-15T08:25:16;36.10;;;17.97;;
3939;SDS011;1984;48.312;9.244;2022-11-15T08:27:42;36.70;;;17.83;;
3939;SDS011;1984;48.312;9.244;2022-11-15T08:30:08;37.77;;;17.70;;
3939;SDS011;1984;48.312;9.244;2022-11-15T08:32:34;32.07;;;18.67;;
3939;SDS011;1984;48.312;9.244;2022-11-15T08:35:00;40.00;;;19.90;;
3939;SDS011;1984;48.312;9.244;2022-11-15T08:37:25;33.47;;;18.93;;
3939;SDS011;1984;48.312;9.244;2022-11-15T08:39:51;40.47;;;19.47;;
3939;SDS011;1984;48.312;9.244;2022-11-15T08:42:17;33.27;;;19.33;;
3939;SDS011;1984;48.312;9.244;2022-11-15T08:44:42;33.47;;;18.33;;
3939;SDS011;1984;48.312;9.244;2022-11-15T08:47:09;36.00;;;16.93;;
3939;SDS011;1984;48.312;9.244;2022-11-15T08:49:37;30.13;;;17.10;;
3939;SDS011;1984;48.312;9.244;2022-11-15T08:52:02;36.23;;;18.77;;
3939;SDS011;1984;48.312;9.244;2022-11-15T08:54:28;27.27;;;16.93;;
3939;SDS011;1984;48.312;9.244;2022-11-15T08:56:53;33.33;;;19.40;;
3939;SDS011;1984;48.312;9.244;2022-11-15T08:59:22;35.47;;;17.97;;
3939;SDS011;1984;48.312;9.244;2022-11-15T09:01:48;44.07;;;21.83;;
3939;SDS011;1984;48.312;9.244;2022-11-15T09:04:13;26.83;;;16.90;;
3939;SDS011;1984;48.312;9.244;2022-11-15T09:06:39;29.53;;;16.60;;
3939;SDS011;1984;48.312;9.244;2022-11-15T09:09:04;32.63;;;19.03;;
3939;SDS011;1984;48.312;9.244;2022-11-15T09:11:30;33.73;;;18.90;;
3939;SDS011;1984;48.312;9.244;2022-11-15T09:13:56;25.67;;;17.20;;
3939;SDS011;1984;48.312;9.244;2022-11-15T09:16:21;22.67;;;14.40;;
3939;SDS011;1984;48.312;9.244;2022-11-15T09:18:47;23.13;;;15.83;;
3939;SDS011;1984;48.312;9.244;2022-11-15T09:21:12;22.33;;;14.50;;
3939;SDS011;1984;48.312;9.244;2022-11-15T09:23:38;27.60;;;15.87;;
3939;SDS011;1984;48.312;9.244;2022-11-15T09:26:04;27.30;;;14.13;;
3939;SDS011;1984;48.312;9.244;2022-11-15T09:28:31;24.73;;;14.23;;
3939;SDS011;1984;48.312;9.244;2022-11-15T09:30:58;26.73;;;13.80;;
3939;SDS011;1984;48.312;9.244;2022-11-15T09:33:24;18.77;;;12.53;;
3939;SDS011;1984;48.312;9.244;2022-11-15T09:35:50;19.97;;;13.30;;
3939;SDS011;1984;48.312;9.244;2022-11-15T09:38:16;23.33;;;13.20;;
3939;SDS011;1984;48.312;9.244;2022-11-15T09:40:42;20.77;;;13.50;;
3939;SDS011;1984;48.312;9.244;2022-11-15T09:46:18;15.67;;;9.57;;
3939;SDS011;1984;48.312;9.244;2022-11-15T09:48:57;21.43;;;13.93;;
3939;SDS011;1984;48.312;9.244;2022-11-15T09:51:27;35.13;;;14.03;;
3939;SDS011;1984;48.312;9.244;2022-11-15T09:54:02;13.97;;;10.17;;
3939;SDS011;1984;48.312;9.244;2022-11-15T09:56:32;11.77;;;9.27;;
3939;SDS011;1984;48.312;9.244;2022-11-15T10:04:25;11.43;;;8.10;;
3939;SDS011;1984;48.312;9.244;2022-11-15T10:07:13;9.37;;;7.37;;
3939;SDS011;1984;48.312;9.244;2022-11-15T10:12:40;10.10;;;6.73;;
3939;SDS011;1984;48.312;9.244;2022-11-15T10:15:14;7.77;;;6.30;;
3939;SDS011;1984;48.312;9.244;2022-11-15T10:20:31;12.13;;;8.90;;
3939;SDS011;1984;48.312;9.244;2022-11-15T10:23:06;9.93;;;7.53;;
3939;SDS011;1984;48.312;9.244;2022-11-15T10:25:38;12.40;;;7.90;;
3939;SDS011;1984;48.312;9.244;2022-11-15T10:30:36;12.63;;;9.30;;
3939;SDS011;1984;48.312;9.244;2022-11-15T10:38:50;10.03;;;6.67;;
3939;SDS011;1984;48.312;9.244;2022-11-15T10:41:19;17.53;;;6.60;;
3939;SDS011;1984;48.312;9.244;2022-11-15T10:44:01;10.93;;;5.10;;
3939;SDS011;1984;48.312;9.244;2022-11-15T10:46:38;7.60;;;5.30;;
3939;SDS011;1984;48.312;9.244;2022-11-15T10:49:12;12.90;;;6.80;;
3939;SDS011;1984;48.312;9.244;2022-11-15T10:52:00;9.30;;;6.83;;
3939;SDS011;1984;48.312;9.244;2022-11-15T10:57:19;12.90;;;7.10;;
3939;SDS011;1984;48.312;9.244;2022-11-15T10:59:56;11.50;;;7.50;;
3939;SDS011;1984;48.312;9.244;2022-11-15T11:05:05;14.00;;;6.60;;
3939;SDS011;1984;48.312;9.244;2022-11-15T11:07:54;10.40;;;6.37;;
3939;SDS011;1984;48.312;9.244;2022-11-15T11:10:26;7.07;;;5.37;;
3939;SDS011;1984;48.312;9.244;2022-11-15T11:12:51;7.67;;;5.63;;
3939;SDS011;1984;48.312;9.244;2022-11-15T11:15:17;8.33;;;5.40;;
3939;SDS011;1984;48.312;9.244;2022-11-15T11:20:58;10.37;;;5.37;;
3939;SDS011;1984;48.312;9.244;2022-11-15T11:26:28;6.67;;;4.47;;
3939;SDS011;1984;48.312;9.244;2022-11-15T11:35:38;6.83;;;4.10;;
3939;SDS011;1984;48.312;9.244;2022-11-15T11:38:32;10.37;;;4.40;;
3939;SDS011;1984;48.312;9.244;2022-11-15T11:46:49;15.10;;;5.77;;
3939;SDS011;1984;48.312;9.244;2022-11-15T11:55:18;11.67;;;4.30;;
3939;SDS011;1984;48.312;9.244;2022-11-15T11:58:16;4.90;;;3.63;;
3939;SDS011;1984;48.312;9.244;2022-11-15T12:00:43;4.93;;;3.83;;
3939;SDS011;1984;48.312;9.244;2022-11-15T12:03:19;7.27;;;3.60;;
3939;SDS011;1984;48.312;9.244;2022-11-15T12:05:54;5.37;;;3.73;;
3939;SDS011;1984;48.312;9.244;2022-11-15T12:08:31;8.80;;;5.23;;
3939;SDS011;1984;48.312;9.244;2022-11-15T12:11:08;9.10;;;6.00;;
3939;SDS011;1984;48.312;9.244;2022-11-15T12:13:53;9.30;;;5.90;;
3939;SDS011;1984;48.312;9.244;2022-11-15T12:16:26;6.70;;;4.23;;
3939;SDS011;1984;48.312;9.244;2022-11-15T12:18:54;6.30;;;4.47;;
3939;SDS011;1984;48.312;9.244;2022-11-15T12:24:12;10.23;;;4.77;;
3939;SDS011;1984;48.312;9.244;2022-11-15T12:26:43;5.03;;;4.23;;
3939;SDS011;1984;48.312;9.244;2022-11-15T12:29:16;7.47;;;4.60;;
3939;SDS011;1984;48.312;9.244;2022-11-15T12:31:50;6.23;;;4.83;;
3939;SDS011;1984;48.312;9.244;2022-11-15T12:36:46;7.10;;;4.50;;
3939;SDS011;1984;48.312;9.244;2022-11-15T12:39:14;5.53;;;3.87;;
3939;SDS011;1984;48.312;9.244;2022-11-15T12:41:43;5.37;;;3.50;;
3939;SDS011;1984;48.312;9.244;2022-11-15T12:47:03;4.43;;;3.60;;
3939;SDS011;1984;48.312;9.244;2022-11-15T12:49:47;7.73;;;5.17;;
3939;SDS011;1984;48.312;9.244;2022-11-15T12:52:13;7.60;;;4.57;;
3939;SDS011;1984;48.312;9.244;2022-11-15T13:02:40;4.83;;;3.50;;
3939;SDS011;1984;48.312;9.244;2022-11-15T13:10:28;4.63;;;4.00;;
3939;SDS011;1984;48.312;9.244;2022-11-15T13:13:02;4.50;;;3.10;;
3939;SDS011;1984;48.312;9.244;2022-11-15T13:18:25;4.60;;;4.03;;
3939;SDS011;1984;48.312;9.244;2022-11-15T13:20:56;5.00;;;2.80;;
3939;SDS011;1984;48.312;9.244;2022-11-15T13:23:22;5.87;;;3.37;;
3939;SDS011;1984;48.312;9.244;2022-11-15T13:31:01;5.27;;;3.30;;
3939;SDS011;1984;48.312;9.244;2022-11-15T13:33:39;4.40;;;3.00;;
3939;SDS011;1984;48.312;9.244;2022-11-15T13:36:06;6.53;;;3.27;;
3939;SDS011;1984;48.312;9.244;2022-11-15T13:38:38;7.40;;;4.00;;
3939;SDS011;1984;48.312;9.244;2022-11-15T13:41:13;4.63;;;3.63;;
3939;SDS011;1984;48.312;9.244;2022-11-15T13:43:51;4.37;;;3.80;;
3939;SDS011;1984;48.312;9.244;2022-11-15T13:46:20;6.47;;;3.60;;
3939;SDS011;1984;48.312;9.244;2022-11-15T13:48:52;3.73;;;2.90;;
3939;SDS011;1984;48.312;9.244;2022-11-15T13:51:43;8.73;;;3.77;;
3939;SDS011;1984;48.312;9.244;2022-11-15T13:56:58;5.37;;;3.83;;
3939;SDS011;1984;48.312;9.244;2022-11-15T13:59:28;7.80;;;4.03;;
3939;SDS011;1984;48.312;9.244;2022-11-15T14:02:03;5.63;;;3.73;;
3939;SDS011;1984;48.312;9.244;2022-11-15T14:04:38;6.53;;;3.90;;
3939;SDS011;1984;48.312;9.244;2022-11-15T14:07:15;7.43;;;3.10;;
3939;SDS011;1984;48.312;9.244;2022-11-15T14:09:43;5.23;;;3.00;;
3939;SDS011;1984;48.312;9.244;2022-11-15T14:14:57;5.40;;;3.40;;
3939;SDS011;1984;48.312;9.244;2022-11-15T14:19:55;9.43;;;3.53;;
3939;SDS011;1984;48.312;9.244;2022-11-15T14:22:23;1.97;;;1.83;;
3939;SDS011;1984;48.312;9.244;2022-11-15T14:25:04;3.30;;;2.20;;
3939;SDS011;1984;48.312;9.244;2022-11-15T14:27:42;2.63;;;2.03;;
3939;SDS011;1984;48.312;9.244;2022-11-15T14:30:13;4.47;;;2.60;;
3939;SDS011;1984;48.312;9.244;2022-11-15T14:32:49;3.13;;;2.83;;
3939;SDS011;1984;48.312;9.244;2022-11-15T14:35:17;3.00;;;2.63;;
3939;SDS011;1984;48.312;9.244;2022-11-15T14:37:45;5.77;;;3.20;;
3939;SDS011;1984;48.312;9.244;2022-11-15T14:40:15;10.30;;;4.10;;
3939;SDS011;1984;48.312;9.244;2022-11-15T14:42:43;7.77;;;4.73;;
3939;SDS011;1984;48.312;9.244;2022-11-15T14:45:11;5.90;;;4.47;;
3939;SDS011;1984;48.312;9.244;2022-11-15T14:47:39;10.70;;;6.30;;
3939;SDS011;1984;48.312;9.244;2022-11-15T14:50:05;16.00;;;9.27;;
3939;SDS011;1984;48.312;9.244;2022-11-15T14:52:31;10.80;;;6.43;;
3939;SDS011;1984;48.312;9.244;2022-11-15T14:55:01;9.17;;;4.80;;
3939;SDS011;1984;48.312;9.244;2022-11-15T14:57:35;7.60;;;4.40;;
3939;SDS011;1984;48.312;9.244;2022-11-15T15:00:00;4.77;;;3.83;;
3939;SDS011;1984;48.312;9.244;2022-11-15T15:02:26;7.07;;;3.50;;
3939;SDS011;1984;48.312;9.244;2022-11-15T15:04:52;8.00;;;3.50;;
3939;SDS011;1984;48.312;9.244;2022-11-15T15:07:18;6.27;;;3.60;;
3939;SDS011;1984;48.312;9.244;2022-11-15T15:09:45;7.67;;;4.47;;
3939;SDS011;1984;48.312;9.244;2022-11-15T15:12:18;7.40;;;4.17;;
3939;SDS011;1984;48.312;9.244;2022-11-15T15:14:48;6.20;;;3.47;;
3939;SDS011;1984;48.312;9.244;2022-11-15T15:17:15;3.30;;;3.00;;
3939;SDS011;1984;48.312;9.244;2022-11-15T15:19:42;4.43;;;2.63;;
3939;SDS011;1984;48.312;9.244;2022-11-15T15:22:10;7.93;;;3.90;;
3939;SDS011;1984;48.312;9.244;2022-11-15T15:24:42;15.17;;;5.90;;
3939;SDS011;1984;48.312;9.244;2022-11-15T15:27:09;8.77;;;5.03;;
3939;SDS011;1984;48.312;9.244;2022-11-15T15:29:35;13.73;;;4.80;;
3939;SDS011;1984;48.312;9.244;2022-11-15T15:32:00;12.10;;;5.73;;
3939;SDS011;1984;48.312;9.244;2022-11-15T15:34:26;22.77;;;6.13;;
3939;SDS011;1984;48.312;9.244;2022-11-15T15:39:50;12.27;;;6.57;;
3939;SDS011;1984;48.312;9.244;2022-11-15T15:42:17;17.10;;;9.20;;
3939;SDS011;1984;48.312;9.244;2022-11-15T15:44:43;12.77;;;8.70;;
3939;SDS011;1984;48.312;9.244;2022-11-15T15:47:18;12.83;;;8.00;;
3939;SDS011;1984;48.312;9.244;2022-11-15T15:49:46;10.20;;;6.00;;
3939;SDS011;1984;48.312;9.244;2022-11-15T15:52:12;10.40;;;5.80;;
3939;SDS011;1984;48.312;9.244;2022-11-15T15:54:38;9.47;;;5.50;;
3939;SDS011;1984;48.312;9.244;2022-11-15T15:57:04;6.47;;;5.07;;
3939;SDS011;1984;48.312;9.244;2022-11-15T15:59:30;9.30;;;6.13;;
3939;SDS011;1984;48.312;9.244;2022-11-15T16:01:55;8.90;;;4.70;;
3939;SDS011;1984;48.312;9.244;2022-11-15T16:04:21;8.87;;;5.00;;
3939;SDS011;1984;48.312;9.244;2022-11-15T16:06:46;6.97;;;4.60;;
3939;SDS011;1984;48.312;9.244;2022-11-15T16:09:14;7.40;;;5.83;;
3939;SDS011;1984;48.312;9.244;2022-11-15T16:11:43;8.90;;;6.50;;
3939;SDS011;1984;48.312;9.244;2022-11-15T16:14:09;10.70;;;5.13;;
3939;SDS011;1984;48.312;9.244;2022-11-15T16:16:35;15.93;;;4.87;;
3939;SDS011;1984;48.312;9.244;2022-11-15T16:19:01;7.37;;;5.10;;
3939;SDS011;1984;48.312;9.244;2022-11-15T16:21:27;13.17;;;6.73;;
3939;SDS011;1984;48.312;9.244;2022-11-15T16:23:53;7.97;;;5.40;;
3939;SDS011;1984;48.312;9.244;2022-11-15T16:26:25;7.97;;;6.10;;
3939;SDS011;1984;48.312;9.244;2022-11-15T16:28:53;9.50;;;6.13;;
3939;SDS011;1984;48.312;9.244;2022-11-15T16:31:19;27.77;;;14.93;;
3939;SDS011;1984;48.312;9.244;2022-11-15T16:33:47;14.27;;;8.53;;
3939;SDS011;1984;48.312;9.244;2022-11-15T16:36:23;9.13;;;7.10;;
3939;SDS011;1984;48.312;9.244;2022-11-15T16:38:50;10.63;;;7.53;;
3939;SDS011;1984;48.312;9.244;2022-11-15T16:41:16;9.90;;;7.43;;
3939;SDS011;1984;48.312;9.244;2022-11-15T16:43:46;10.70;;;6.70;;
3939;SDS011;1984;48.312;9.244;2022-11-15T16:46:13;11.53;;;7.07;;
3939;SDS011;1984;48.312;9.244;2022-11-15T16:48:49;11.47;;;7.60;;
3939;SDS011;1984;48.312;9.244;2022-11-15T16:51:16;9.60;;;7.47;;
3939;SDS011;1984;48.312;9.244;2022-11-15T16:53:42;11.50;;;7.37;;
3939;SDS011;1984;48.312;9.244;2022-11-15T16:58:44;14.80;;;8.20;;
3939;SDS011;1984;48.312;9.244;2022-11-15T17:01:23;15.10;;;8.80;;
3939;SDS011;1984;48.312;9.244;2022-11-15T17:03:53;21.87;;;9.93;;
3939;SDS011;1984;48.312;9.244;2022-11-15T17:06:19;17.80;;;8.07;;
3939;SDS011;1984;48.312;9.244;2022-11-15T17:08:46;18.67;;;9.00;;
3939;SDS011;1984;48.312;9.244;2022-11-15T17:11:13;20.70;;;8.77;;
3939;SDS011;1984;48.312;9.244;2022-11-15T17:13:40;24.70;;;10.77;;
3939;SDS011;1984;48.312;9.244;2022-11-15T17:16:07;24.83;;;12.03;;
3939;SDS011;1984;48.312;9.244;2022-11-15T17:18:36;24.80;;;11.37;;
3939;SDS011;1984;48.312;9.244;2022-11-15T17:21:02;16.60;;;8.73;;
3939;SDS011;1984;48.312;9.244;2022-11-15T17:23:29;16.57;;;8.60;;
3939;SDS011;1984;48.312;9.244;2022-11-15T17:25:58;15.73;;;10.53;;
3939;SDS011;1984;48.312;9.244;2022-11-15T17:28:25;11.73;;;8.27;;
3939;SDS011;1984;48.312;9.244;2022-11-15T17:30:51;14.23;;;7.87;;
3939;SDS011;1984;48.312;9.244;2022-11-15T17:33:18;8.43;;;6.10;;